Time;durP1;ratioP1;P1;durP2;ratioP2;P2;SDS_P1;SDS_P2;PMS_P1;PMS_P2;Temp;Humidity;BMP_temperature;BMP_pressure;BME280_temperature;BME280_humidity;BME280_pressure;Samples;Min_cycle;Max_cycle;Signal;HPM_P1;HPM_P2
2021/08/27 00:00:07;;;;;;;8.88;4.80;;;;;;;;;;5009204;28;20028;-64
2021/08/27 00:02:34;;;;;;;9.38;4.32;;;;;;;;;;5004808;28;20054;-64
2021/08/27 00:05:00;;;;;;;8.70;4.90;;;;;;;;;;5002774;28;20100;-64
2021/08/27 00:07:27;;;;;;;7.90;4.63;;;;;;;;;;5005521;28;20459;-64
2021/08/27 00:09:53;;;;;;;7.65;4.47;;;;;;;;;;5000924;28;20125;-64
2021/08/27 00:12:20;;;;;;;7.70;4.75;;;;;;;;;;5023129;28;20088;-64
2021/08/27 00:14:47;;;;;;;9.32;4.28;;;;;;;;;;5005963;28;20125;-64
2021/08/27 00:17:13;;;;;;;9.85;4.85;;;;;;;;;;5006362;28;20169;-64
2021/08/27 00:19:40;;;;;;;7.10;4.10;;;;;;;;;;5002853;28;20137;-64
2021/08/27 00:22:06;;;;;;;8.00;3.90;;;;;;;;;;5006151;28;20580;-64
2021/08/27 00:24:33;;;;;;;8.32;4.30;;;;;;;;;;5003447;28;20077;-64
2021/08/27 00:27:02;;;;;;;8.13;4.20;;;;;;;;;;5009479;28;20049;-64
2021/08/27 00:29:28;;;;;;;9.93;3.85;;;;;;;;;;5011415;28;20560;-64
2021/08/27 00:31:55;;;;;;;6.63;4.03;;;;;;;;;;5010016;28;20089;-64
2021/08/27 00:34:21;;;;;;;8.68;4.10;;;;;;;;;;5007170;28;20895;-63
2021/08/27 00:36:48;;;;;;;5.80;3.58;;;;;;;;;;5009145;28;20479;-64
2021/08/27 00:39:14;;;;;;;6.60;4.03;;;;;;;;;;5009135;28;20088;-64
2021/08/27 00:41:41;;;;;;;7.18;4.07;;;;;;;;;;5009148;28;20089;-64
2021/08/27 00:44:08;;;;;;;5.70;4.13;;;;;;;;;;5007715;28;20130;-63
2021/08/27 00:46:34;;;;;;;8.20;4.18;;;;;;;;;;5008714;28;20133;-64
2021/08/27 00:49:01;;;;;;;6.18;3.60;;;;;;;;;;5009955;28;20457;-64
2021/08/27 00:51:29;;;;;;;7.40;3.80;;;;;;;;;;5008278;28;20493;-64
2021/08/27 00:53:56;;;;;;;7.22;3.35;;;;;;;;;;5009089;28;20076;-64
2021/08/27 00:56:22;;;;;;;7.90;3.83;;;;;;;;;;5014998;28;20137;-64
2021/08/27 00:58:49;;;;;;;6.15;3.90;;;;;;;;;;5008055;28;20137;-64
2021/08/27 01:01:17;;;;;;;5.45;3.35;;;;;;;;;;5006271;28;20480;-64
2021/08/27 01:03:44;;;;;;;6.57;3.55;;;;;;;;;;5008122;28;20297;-64
2021/08/27 01:06:26;;;;;;;7.63;3.70;;;;;;;;;;5005838;28;20141;-64
2021/08/27 01:08:57;;;;;;;8.48;3.85;;;;;;;;;;5004076;28;20093;-64
2021/08/27 01:11:24;;;;;;;7.35;3.72;;;;;;;;;;5004673;28;20588;-64
2021/08/27 01:13:54;;;;;;;8.10;3.80;;;;;;;;;;4999785;28;20081;-64
2021/08/27 01:16:27;;;;;;;6.90;3.58;;;;;;;;;;5005752;28;20107;-64
2021/08/27 01:19:07;;;;;;;8.02;4.10;;;;;;;;;;5011175;28;20152;-64
2021/08/27 01:21:52;;;;;;;8.50;4.00;;;;;;;;;;5009503;28;20134;-64
2021/08/27 01:24:19;;;;;;;7.57;3.88;;;;;;;;;;5006064;28;20371;-64
2021/08/27 01:26:49;;;;;;;8.85;3.90;;;;;;;;;;5010585;28;20074;-64
2021/08/27 01:29:19;;;;;;;7.80;4.10;;;;;;;;;;5011604;28;20093;-63
2021/08/27 01:31:51;;;;;;;8.02;4.10;;;;;;;;;;5010261;28;20141;-64
2021/08/27 01:34:32;;;;;;;6.97;4.07;;;;;;;;;;5006956;28;20143;-63
2021/08/27 01:36:59;;;;;;;7.30;4.35;;;;;;;;;;5002703;28;20053;-63
2021/08/27 01:39:31;;;;;;;6.20;3.90;;;;;;;;;;5007198;28;20080;-63
2021/08/27 01:41:58;;;;;;;11.27;4.15;;;;;;;;;;5007903;28;20133;-63
2021/08/27 01:44:26;;;;;;;6.43;3.70;;;;;;;;;;5005639;28;20125;-63
2021/08/27 01:46:53;;;;;;;;;;;;;;;;;;5003337;28;20514;-63
2021/08/27 01:49:20;;;;;;;8.07;3.92;;;;;;;;;;5008791;28;19961;-63
2021/08/27 01:51:47;;;;;;;10.73;3.42;;;;;;;;;;5010045;28;20140;-63
2021/08/27 01:54:17;;;;;;;6.25;4.13;;;;;;;;;;5005160;28;20081;-63
2021/08/27 01:56:43;;;;;;;6.70;4.00;;;;;;;;;;5009933;28;20073;-63
2021/08/27 01:59:10;;;;;;;7.82;4.45;;;;;;;;;;5013085;28;20081;-64
2021/08/27 02:01:38;;;;;;;7.47;5.17;;;;;;;;;;5007775;28;20080;-64
2021/08/27 02:04:04;;;;;;;;;;;;;;;;;;5006428;28;20543;-64
2021/08/27 02:06:31;;;;;;;8.93;5.13;;;;;;;;;;5007620;28;20418;-64
2021/08/27 02:08:58;;;;;;;7.43;5.05;;;;;;;;;;5002210;28;20138;-64
2021/08/27 02:11:25;;;;;;;11.45;5.20;;;;;;;;;;5013043;28;20054;-63
2021/08/27 02:13:52;;;;;;;10.68;5.60;;;;;;;;;;5005564;28;20480;-63
2021/08/27 02:16:19;;;;;;;8.30;4.75;;;;;;;;;;5004204;28;20078;-64
2021/08/27 02:18:45;;;;;;;13.00;5.32;;;;;;;;;;5001945;28;20108;-65
2021/08/27 02:21:12;;;;;;;13.60;6.20;;;;;;;;;;5003543;28;20140;-65
2021/08/27 02:23:40;;;;;;;7.82;5.10;;;;;;;;;;5009749;28;20141;-65
2021/08/27 02:26:07;;;;;;;9.40;5.68;;;;;;;;;;5005661;28;20133;-65
2021/08/27 02:28:34;;;;;;;7.25;5.05;;;;;;;;;;5005163;28;20249;-65
2021/08/27 02:31:01;;;;;;;9.25;5.35;;;;;;;;;;5006806;28;20581;-66
2021/08/27 02:33:28;;;;;;;10.63;5.22;;;;;;;;;;5006589;28;20049;-65
2021/08/27 02:35:56;;;;;;;10.35;5.15;;;;;;;;;;5008128;28;20076;-65
2021/08/27 02:38:23;;;;;;;8.43;4.55;;;;;;;;;;4999694;28;20141;-66
2021/08/27 02:40:50;;;;;;;9.13;5.15;;;;;;;;;;5003414;28;20186;-66
2021/08/27 02:43:16;;;;;;;6.65;4.75;;;;;;;;;;5006361;28;20053;-66
2021/08/27 02:45:43;;;;;;;5.30;3.67;;;;;;;;;;5008746;28;20073;-66
2021/08/27 02:48:09;;;;;;;7.38;4.57;;;;;;;;;;5001664;28;20061;-65
2021/08/27 02:50:39;;;;;;;6.18;4.10;;;;;;;;;;5009972;28;20172;-65
2021/08/27 02:53:12;;;;;;;7.55;4.40;;;;;;;;;;5007003;28;20145;-65
2021/08/27 02:55:42;;;;;;;6.35;4.55;;;;;;;;;;5006919;28;20077;-65
2021/08/27 02:58:12;;;;;;;7.95;4.47;;;;;;;;;;5008351;28;20580;-65
2021/08/27 03:00:50;;;;;;;7.57;4.75;;;;;;;;;;5007615;28;20048;-65
2021/08/27 03:03:19;;;;;;;5.50;4.03;;;;;;;;;;5008027;28;20521;-66
2021/08/27 03:05:46;;;;;;;6.82;4.47;;;;;;;;;;5011504;28;20045;-65
2021/08/27 03:08:15;;;;;;;8.02;4.88;;;;;;;;;;5007884;28;20129;-65
2021/08/27 03:10:43;;;;;;;7.68;4.30;;;;;;;;;;5004693;28;20137;-65
2021/08/27 03:13:12;;;;;;;7.32;4.90;;;;;;;;;;5001194;28;20160;-65
2021/08/27 03:15:42;;;;;;;7.63;3.90;;;;;;;;;;5006746;28;20136;-65
2021/08/27 03:18:11;;;;;;;6.32;4.50;;;;;;;;;;5004930;28;20524;-65
2021/08/27 03:20:41;;;;;;;7.97;4.93;;;;;;;;;;5005761;28;20132;-65
2021/08/27 03:23:09;;;;;;;8.93;4.30;;;;;;;;;;4999552;28;20588;-65
2021/08/27 03:25:37;;;;;;;9.20;5.15;;;;;;;;;;5008449;28;20509;-65
2021/08/27 03:28:05;;;;;;;6.75;4.85;;;;;;;;;;5013232;28;20129;-65
2021/08/27 03:30:32;;;;;;;8.30;5.18;;;;;;;;;;5003371;28;20050;-65
2021/08/27 03:33:02;;;;;;;10.02;5.93;;;;;;;;;;5007232;28;20054;-65
2021/08/27 03:35:29;;;;;;;9.88;5.47;;;;;;;;;;5004151;28;20129;-65
2021/08/27 03:37:56;;;;;;;7.77;5.40;;;;;;;;;;5005572;28;20054;-65
2021/08/27 03:40:23;;;;;;;9.50;5.97;;;;;;;;;;5005868;28;20084;-65
2021/08/27 03:42:49;;;;;;;8.63;5.45;;;;;;;;;;5006490;28;20081;-65
2021/08/27 03:45:17;;;;;;;8.23;5.75;;;;;;;;;;5008434;28;20049;-65
2021/08/27 03:47:45;;;;;;;10.65;5.80;;;;;;;;;;5005253;28;20132;-65
2021/08/27 03:50:11;;;;;;;;;;;;;;;;;;5012312;28;21699;-65
2021/08/27 03:52:40;;;;;;;10.90;6.03;;;;;;;;;;5005220;28;19975;-65
2021/08/27 03:55:08;;;;;;;12.85;5.43;;;;;;;;;;5000836;28;20196;-65
2021/08/27 03:57:35;;;;;;;10.07;5.75;;;;;;;;;;5001425;28;20125;-65
2021/08/27 04:00:03;;;;;;;8.48;5.53;;;;;;;;;;5011052;28;20140;-65
2021/08/27 04:02:30;;;;;;;8.38;5.53;;;;;;;;;;5010413;28;20054;-65
2021/08/27 04:04:57;;;;;;;;;;;;;;;;;;5008704;28;20050;-65
2021/08/27 04:07:23;;;;;;;13.70;5.90;;;;;;;;;;5004956;28;20017;-65
2021/08/27 04:09:53;;;;;;;10.40;6.00;;;;;;;;;;5017452;28;20070;-65
2021/08/27 04:12:19;;;;;;;10.68;5.75;;;;;;;;;;5002789;28;20845;-65
2021/08/27 04:14:46;;;;;;;10.55;5.93;;;;;;;;;;5018184;28;20457;-65
2021/08/27 04:17:12;;;;;;;8.10;5.32;;;;;;;;;;4997394;28;20081;-65
2021/08/27 04:19:39;;;;;;;7.68;5.10;;;;;;;;;;5011879;28;20137;-66
2021/08/27 04:22:05;;;;;;;7.88;5.57;;;;;;;;;;5009750;28;20074;-65
2021/08/27 04:24:32;;;;;;;11.00;5.18;;;;;;;;;;5011099;28;20129;-65
2021/08/27 04:26:58;;;;;;;9.05;5.10;;;;;;;;;;5007527;28;20129;-65
2021/08/27 04:29:25;;;;;;;8.30;5.28;;;;;;;;;;5013506;28;20176;-65
2021/08/27 04:31:52;;;;;;;8.77;5.68;;;;;;;;;;5006704;28;20144;-65
2021/08/27 04:34:18;;;;;;;11.57;5.43;;;;;;;;;;5006431;28;20057;-65
2021/08/27 04:36:44;;;;;;;10.30;5.60;;;;;;;;;;5007633;28;20060;-65
2021/08/27 04:39:11;;;;;;;8.07;5.05;;;;;;;;;;5005116;28;20050;-65
2021/08/27 04:41:38;;;;;;;12.65;5.90;;;;;;;;;;5013557;28;20212;-65
2021/08/27 04:44:04;;;;;;;8.93;4.68;;;;;;;;;;5012576;28;20038;-65
2021/08/27 04:46:31;;;;;;;8.18;5.10;;;;;;;;;;5010165;28;20124;-65
2021/08/27 04:48:58;;;;;;;7.30;4.50;;;;;;;;;;5006205;28;20137;-65
2021/08/27 04:51:24;;;;;;;7.15;4.75;;;;;;;;;;5012133;28;20297;-65
2021/08/27 04:53:51;;;;;;;9.90;5.18;;;;;;;;;;5006514;28;20493;-65
2021/08/27 04:56:20;;;;;;;10.65;4.90;;;;;;;;;;5005972;28;20133;-65
2021/08/27 04:58:47;;;;;;;8.98;4.85;;;;;;;;;;5006917;28;20053;-65
2021/08/27 05:01:14;;;;;;;8.02;4.65;;;;;;;;;;5016332;28;20136;-65
2021/08/27 05:03:41;;;;;;;9.68;4.75;;;;;;;;;;5015644;28;20049;-65
2021/08/27 05:06:08;;;;;;;6.03;4.15;;;;;;;;;;5006310;28;20042;-65
2021/08/27 05:08:35;;;;;;;8.10;4.93;;;;;;;;;;5004649;28;20532;-65
2021/08/27 05:11:02;;;;;;;8.15;4.95;;;;;;;;;;5004277;28;20076;-65
2021/08/27 05:13:29;;;;;;;;;;;;;;;;;;5008485;28;20500;-65
2021/08/27 05:15:55;;;;;;;7.45;4.35;;;;;;;;;;5005599;28;20136;-65
2021/08/27 05:18:22;;;;;;;5.28;3.65;;;;;;;;;;5000421;28;20050;-65
2021/08/27 05:20:49;;;;;;;6.82;4.40;;;;;;;;;;5003890;28;20121;-65
2021/08/27 05:23:16;;;;;;;7.85;4.43;;;;;;;;;;5001079;28;20097;-65
2021/08/27 05:25:42;;;;;;;6.65;3.90;;;;;;;;;;5005195;28;20100;-65
2021/08/27 05:28:08;;;;;;;7.47;4.28;;;;;;;;;;5006397;28;20083;-65
2021/08/27 05:30:36;;;;;;;6.30;3.70;;;;;;;;;;5005393;28;20288;-65
2021/08/27 05:33:02;;;;;;;7.68;4.47;;;;;;;;;;5005184;28;20461;-65
2021/08/27 05:35:28;;;;;;;10.07;4.05;;;;;;;;;;5007742;28;20489;-65
2021/08/27 05:37:55;;;;;;;6.38;3.90;;;;;;;;;;5008510;28;20081;-65
2021/08/27 05:40:22;;;;;;;6.05;4.07;;;;;;;;;;5006252;28;20045;-65
2021/08/27 05:42:48;;;;;;;6.90;4.03;;;;;;;;;;5004859;28;20137;-65
2021/08/27 05:45:15;;;;;;;5.68;3.88;;;;;;;;;;5009100;28;20046;-65
2021/08/27 05:47:42;;;;;;;7.63;4.53;;;;;;;;;;5009961;28;20052;-65
2021/08/27 05:50:09;;;;;;;8.60;4.38;;;;;;;;;;5008700;28;20133;-64
2021/08/27 05:52:36;;;;;;;10.65;4.63;;;;;;;;;;5007295;28;20054;-64
2021/08/27 05:55:03;;;;;;;6.55;4.63;;;;;;;;;;5005538;28;20078;-65
2021/08/27 05:57:29;;;;;;;5.77;4.40;;;;;;;;;;5006459;28;20078;-65
2021/08/27 05:59:56;;;;;;;8.37;4.33;;;;;;;;;;5003713;28;20080;-65
2021/08/27 06:02:22;;;;;;;6.55;3.90;;;;;;;;;;5006617;28;20078;-65
2021/08/27 06:04:49;;;;;;;6.90;4.35;;;;;;;;;;5001314;28;20050;-65
2021/08/27 06:07:15;;;;;;;8.10;4.00;;;;;;;;;;5007972;28;20153;-64
2021/08/27 06:09:42;;;;;;;7.88;4.60;;;;;;;;;;5003349;28;20046;-65
2021/08/27 06:12:09;;;;;;;7.40;4.37;;;;;;;;;;5006411;28;20137;-65
2021/08/27 06:14:36;;;;;;;8.45;4.90;;;;;;;;;;4996026;28;20573;-65
2021/08/27 06:17:02;;;;;;;7.28;3.92;;;;;;;;;;5008516;28;20069;-65
2021/08/27 06:19:29;;;;;;;7.20;4.53;;;;;;;;;;5009916;28;20044;-65
2021/08/27 06:21:57;;;;;;;8.32;4.90;;;;;;;;;;4999510;28;20410;-65
2021/08/27 06:24:24;;;;;;;5.68;3.65;;;;;;;;;;5008350;28;20054;-65
2021/08/27 06:26:51;;;;;;;6.38;4.60;;;;;;;;;;5004986;28;20125;-65
2021/08/27 06:29:18;;;;;;;6.18;4.40;;;;;;;;;;5007394;28;20049;-65
2021/08/27 06:31:44;;;;;;;8.07;4.97;;;;;;;;;;5001381;28;20136;-65
2021/08/27 06:34:10;;;;;;;7.80;4.90;;;;;;;;;;5004888;28;20478;-65
2021/08/27 06:36:37;;;;;;;8.20;5.07;;;;;;;;;;4998698;28;20145;-65
2021/08/27 06:39:03;;;;;;;7.32;4.55;;;;;;;;;;5003995;28;20073;-65
2021/08/27 06:41:30;;;;;;;7.22;4.97;;;;;;;;;;5004554;28;20140;-65
2021/08/27 06:44:09;;;;;;;8.98;5.20;;;;;;;;;;5095855;27;20725;-65
2021/08/27 06:46:36;;;;;;;7.30;4.90;;;;;;;;;;5092610;28;20048;-64
2021/08/27 06:49:02;;;;;;;7.22;4.80;;;;;;;;;;5090656;28;20152;-65
2021/08/27 06:51:29;;;;;;;9.10;5.32;;;;;;;;;;5097984;28;20142;-65
2021/08/27 06:53:55;;;;;;;10.85;5.20;;;;;;;;;;5096228;28;20087;-65
2021/08/27 06:56:27;;;;;;;8.55;5.50;;;;;;;;;;5095032;28;20100;-65
2021/08/27 06:58:53;;;;;;;6.85;5.07;;;;;;;;;;5089084;28;20576;-65
2021/08/27 07:01:19;;;;;;;7.93;5.13;;;;;;;;;;5088109;28;20242;-65
2021/08/27 07:03:47;;;;;;;9.07;4.80;;;;;;;;;;5092966;28;20052;-65
2021/08/27 07:06:13;;;;;;;8.13;5.13;;;;;;;;;;5090268;28;20591;-64
2021/08/27 07:08:41;;;;;;;9.87;5.00;;;;;;;;;;5090050;28;20139;-65
2021/08/27 07:11:07;;;;;;;7.55;5.22;;;;;;;;;;5089494;28;20144;-65
2021/08/27 07:13:34;;;;;;;7.15;5.40;;;;;;;;;;5092405;28;20294;-64
2021/08/27 07:16:00;;;;;;;9.27;5.55;;;;;;;;;;5091212;28;20138;-65
2021/08/27 07:18:27;;;;;;;8.90;5.78;;;;;;;;;;5092526;28;20055;-65
2021/08/27 07:20:54;;;;;;;9.25;4.85;;;;;;;;;;5095351;28;20327;-65
2021/08/27 07:23:20;;;;;;;8.35;5.85;;;;;;;;;;5093771;28;20440;-65
2021/08/27 07:25:47;;;;;;;7.78;5.70;;;;;;;;;;5090259;28;20151;-65
2021/08/27 07:28:13;;;;;;;8.50;5.25;;;;;;;;;;5096983;28;20131;-65
2021/08/27 07:30:40;;;;;;;8.43;5.25;;;;;;;;;;5090287;28;20126;-65
2021/08/27 07:33:07;;;;;;;9.48;5.20;;;;;;;;;;5092536;28;20131;-65
2021/08/27 07:35:33;;;;;;;9.45;5.45;;;;;;;;;;5089086;28;20127;-65
2021/08/27 07:38:00;;;;;;;6.97;5.17;;;;;;;;;;5093820;28;20136;-65
2021/08/27 07:40:26;;;;;;;10.50;5.50;;;;;;;;;;5093694;28;20135;-65
2021/08/27 07:42:53;;;;;;;8.68;5.38;;;;;;;;;;5089685;28;20051;-65
2021/08/27 07:45:20;;;;;;;7.72;4.70;;;;;;;;;;5091228;28;20075;-65
2021/08/27 07:47:46;;;;;;;11.10;5.23;;;;;;;;;;5095540;28;20123;-65
2021/08/27 07:50:14;;;;;;;7.10;4.93;;;;;;;;;;5090225;28;20143;-65
2021/08/27 07:52:40;;;;;;;9.73;5.70;;;;;;;;;;5089909;28;20131;-65
2021/08/27 07:55:07;;;;;;;8.18;4.95;;;;;;;;;;5080435;28;20569;-65
2021/08/27 07:57:38;;;;;;;9.50;5.78;;;;;;;;;;5078321;28;20162;-65
2021/08/27 08:00:05;;;;;;;9.45;5.63;;;;;;;;;;5077171;28;20119;-65
2021/08/27 08:02:32;;;;;;;8.32;5.13;;;;;;;;;;5078410;28;20099;-65
2021/08/27 08:04:59;;;;;;;10.43;6.03;;;;;;;;;;5076782;28;20059;-65
2021/08/27 08:07:26;;;;;;;10.48;5.32;;;;;;;;;;5076523;28;20666;-65
2021/08/27 08:09:52;;;;;;;6.85;5.18;;;;;;;;;;5079948;28;20056;-65
2021/08/27 08:12:19;;;;;;;8.82;5.70;;;;;;;;;;5079778;28;20121;-65
2021/08/27 08:14:45;;;;;;;8.38;5.13;;;;;;;;;;5076380;28;20131;-65
2021/08/27 08:17:11;;;;;;;6.07;4.57;;;;;;;;;;5078954;28;20089;-65
2021/08/27 08:19:38;;;;;;;7.38;4.70;;;;;;;;;;5076076;28;20136;-65
2021/08/27 08:22:04;;;;;;;8.20;5.13;;;;;;;;;;5079954;28;20123;-65
2021/08/27 08:24:31;;;;;;;7.18;4.75;;;;;;;;;;5080525;28;20524;-65
2021/08/27 08:26:58;;;;;;;10.48;5.00;;;;;;;;;;5081392;28;20135;-65
2021/08/27 08:29:24;;;;;;;9.10;4.38;;;;;;;;;;5084807;28;20135;-65
2021/08/27 08:31:52;;;;;;;6.53;4.78;;;;;;;;;;5080891;28;20072;-65
2021/08/27 08:34:19;;;;;;;9.32;5.22;;;;;;;;;;5075145;28;20076;-65
2021/08/27 08:36:45;;;;;;;9.70;4.88;;;;;;;;;;5075140;28;20127;-65
2021/08/27 08:39:12;;;;;;;12.23;4.70;;;;;;;;;;5082447;28;20476;-65
2021/08/27 08:41:38;;;;;;;10.18;4.60;;;;;;;;;;5082141;28;20136;-65
2021/08/27 08:44:04;;;;;;;7.63;5.13;;;;;;;;;;5074521;28;20142;-64
2021/08/27 08:46:31;;;;;;;11.98;4.85;;;;;;;;;;5075430;28;20167;-64
2021/08/27 08:48:58;;;;;;;6.35;4.38;;;;;;;;;;5081307;28;20056;-65
2021/08/27 08:51:25;;;;;;;7.43;4.47;;;;;;;;;;5080204;28;20116;-65
2021/08/27 08:53:53;;;;;;;6.30;4.22;;;;;;;;;;5076154;28;20052;-64
2021/08/27 08:56:20;;;;;;;9.40;4.57;;;;;;;;;;5080557;28;20048;-64
2021/08/27 08:58:47;;;;;;;8.52;4.57;;;;;;;;;;5076588;28;20093;-64
2021/08/27 09:01:17;;;;;;;9.65;4.85;;;;;;;;;;5080867;28;20666;-64
2021/08/27 09:03:45;;;;;;;8.25;4.60;;;;;;;;;;5075397;28;20749;-64
2021/08/27 09:06:12;;;;;;;7.13;4.50;;;;;;;;;;5077128;28;20071;-65
2021/08/27 09:08:42;;;;;;;5.75;3.53;;;;;;;;;;5077001;28;20107;-64
2021/08/27 09:11:22;;;;;;;8.20;4.75;;;;;;;;;;5074012;28;20559;-64
2021/08/27 09:13:50;;;;;;;7.25;3.95;;;;;;;;;;5083102;28;20051;-64
2021/08/27 09:16:17;;;;;;;8.57;4.72;;;;;;;;;;5077090;28;20084;-65
2021/08/27 09:18:48;;;;;;;7.82;4.22;;;;;;;;;;5080189;28;20048;-64
2021/08/27 09:21:14;;;;;;;;;;;;;;;;;;5081203;28;20075;-64
2021/08/27 09:23:41;;;;;;;4.82;3.25;;;;;;;;;;5080034;28;19972;-64
2021/08/27 09:26:07;;;;;;;8.27;4.30;;;;;;;;;;5072014;28;20126;-64
2021/08/27 09:28:37;;;;;;;9.80;3.90;;;;;;;;;;5080765;28;20135;-64
2021/08/27 09:31:03;;;;;;;7.60;4.20;;;;;;;;;;5081253;28;20083;-64
2021/08/27 09:33:35;;;;;;;5.50;4.28;;;;;;;;;;5073488;28;20211;-64
2021/08/27 09:36:02;;;;;;;8.02;4.22;;;;;;;;;;5078700;28;20127;-64
2021/08/27 09:38:31;;;;;;;10.15;4.57;;;;;;;;;;5084411;28;20122;-65
2021/08/27 09:40:58;;;;;;;7.97;4.90;;;;;;;;;;5075294;28;20091;-64
2021/08/27 09:43:25;;;;;;;7.95;4.07;;;;;;;;;;5098294;27;20154;-64
2021/08/27 09:45:52;;;;;;;5.78;4.53;;;;;;;;;;5101610;27;20094;-64
2021/08/27 09:48:18;;;;;;;9.27;4.43;;;;;;;;;;5094008;28;20048;-64
2021/08/27 09:50:49;;;;;;;9.70;4.22;;;;;;;;;;5096500;27;20182;-64
2021/08/27 09:53:16;;;;;;;5.95;4.40;;;;;;;;;;5100148;27;20126;-64
2021/08/27 09:55:58;;;;;;;6.57;4.32;;;;;;;;;;5104097;27;20051;-64
2021/08/27 09:58:26;;;;;;;5.03;3.80;;;;;;;;;;5101690;27;20086;-64
2021/08/27 10:01:06;;;;;;;5.85;4.20;;;;;;;;;;5107292;27;20134;-64
2021/08/27 10:03:34;;;;;;;6.13;4.40;;;;;;;;;;5094962;27;20043;-64
2021/08/27 10:06:03;;;;;;;7.35;3.97;;;;;;;;;;5098125;27;20139;-64
2021/08/27 10:08:36;;;;;;;6.85;3.75;;;;;;;;;;5096556;27;20040;-64
2021/08/27 10:11:19;;;;;;;5.40;3.65;;;;;;;;;;5092719;27;20514;-64
2021/08/27 10:13:45;;;;;;;4.75;3.38;;;;;;;;;;5102609;27;20094;-64
2021/08/27 10:16:13;;;;;;;5.10;3.40;;;;;;;;;;5103609;27;20086;-64
2021/08/27 10:18:40;;;;;;;7.65;3.83;;;;;;;;;;5095261;28;20407;-64
2021/08/27 10:21:07;;;;;;;8.70;3.88;;;;;;;;;;5093360;28;20136;-64
2021/08/27 10:23:33;;;;;;;7.15;3.67;;;;;;;;;;5099997;27;20482;-64
2021/08/27 10:26:13;;;;;;;5.90;3.92;;;;;;;;;;5099919;27;20127;-64
2021/08/27 10:28:39;;;;;;;7.38;4.00;;;;;;;;;;5097224;28;20127;-64
2021/08/27 10:31:06;;;;;;;5.88;3.65;;;;;;;;;;5094806;28;20166;-64
2021/08/27 10:33:39;;;;;;;5.95;3.63;;;;;;;;;;5097397;27;20059;-65
2021/08/27 10:36:25;;;;;;;4.97;3.70;;;;;;;;;;5088890;28;20071;-64
2021/08/27 10:38:52;;;;;;;5.93;3.80;;;;;;;;;;5100805;28;20498;-64
2021/08/27 10:41:19;;;;;;;6.45;3.65;;;;;;;;;;5096490;28;20076;-65
2021/08/27 10:44:01;;;;;;;4.75;3.38;;;;;;;;;;5095650;28;20139;-64
2021/08/27 10:46:52;;;;;;;4.43;3.25;;;;;;;;;;5102181;28;20126;-64
2021/08/27 10:49:22;;;;;;;6.88;3.10;;;;;;;;;;5085072;28;20087;-64
2021/08/27 10:51:50;;;;;;;5.60;3.50;;;;;;;;;;5095379;28;20079;-64
2021/08/27 10:54:17;;;;;;;5.43;3.75;;;;;;;;;;5100964;28;20137;-64
2021/08/27 10:56:51;;;;;;;5.57;3.67;;;;;;;;;;5103551;28;20134;-64
2021/08/27 10:59:20;;;;;;;4.47;3.63;;;;;;;;;;5101216;28;20127;-64
2021/08/27 11:02:06;;;;;;;5.95;3.22;;;;;;;;;;5093754;28;20083;-65
2021/08/27 11:04:41;;;;;;;10.63;3.33;;;;;;;;;;5100740;28;20039;-64
2021/08/27 11:07:26;;;;;;;8.13;3.70;;;;;;;;;;5100547;28;20047;-65
2021/08/27 11:09:59;;;;;;;3.92;2.83;;;;;;;;;;5099798;28;20052;-64
2021/08/27 11:12:32;;;;;;;6.72;3.10;;;;;;;;;;5097438;28;20087;-64
2021/08/27 11:15:17;;;;;;;4.40;3.22;;;;;;;;;;5092784;28;20049;-64
2021/08/27 11:18:03;;;;;;;3.85;3.03;;;;;;;;;;5099189;28;20126;-64
2021/08/27 11:20:30;;;;;;;3.80;3.00;;;;;;;;;;5098450;28;20127;-64
2021/08/27 11:22:57;;;;;;;4.05;2.80;;;;;;;;;;5095355;28;20079;-64
2021/08/27 11:25:24;;;;;;;4.22;3.08;;;;;;;;;;5096128;28;20135;-64
2021/08/27 11:28:26;;;;;;;3.53;2.53;;;;;;;;;;5098049;28;20127;-64
2021/08/27 11:31:02;;;;;;;5.40;2.70;;;;;;;;;;5014362;28;20133;-64
2021/08/27 11:33:46;;;;;;;5.13;2.60;;;;;;;;;;5088009;28;20127;-64
2021/08/27 11:36:13;;;;;;;8.18;2.88;;;;;;;;;;5098737;27;20131;-65
2021/08/27 11:38:40;;;;;;;4.07;3.05;;;;;;;;;;5103282;27;20119;-65
2021/08/27 11:41:06;;;;;;;3.92;2.60;;;;;;;;;;5103761;27;20161;-64
2021/08/27 11:43:33;;;;;;;5.32;2.95;;;;;;;;;;5101045;28;20546;-64
2021/08/27 11:46:01;;;;;;;3.60;3.05;;;;;;;;;;5094735;28;20056;-64
2021/08/27 11:48:27;;;;;;;;;;;;;;;;;;5098477;28;20265;-64
2021/08/27 11:50:56;;;;;;;4.90;2.70;;;;;;;;;;5097315;28;19920;-64
2021/08/27 11:53:27;;;;;;;3.45;2.78;;;;;;;;;;5107374;28;20059;-64
2021/08/27 11:55:53;;;;;;;3.35;2.50;;;;;;;;;;5097079;28;20116;-64
2021/08/27 11:58:20;;;;;;;4.97;2.67;;;;;;;;;;5100023;28;20048;-64
2021/08/27 12:00:48;;;;;;;3.83;2.63;;;;;;;;;;5100220;27;20052;-64
2021/08/27 12:03:16;;;;;;;3.60;2.50;;;;;;;;;;5098031;28;20085;-64
2021/08/27 12:05:44;;;;;;;4.38;2.20;;;;;;;;;;5099489;27;20055;-64
2021/08/27 12:08:11;;;;;;;6.10;2.40;;;;;;;;;;5095520;28;20043;-64
2021/08/27 12:10:38;;;;;;;4.55;2.55;;;;;;;;;;5094390;27;20052;-64
2021/08/27 12:13:06;;;;;;;3.85;2.72;;;;;;;;;;5101280;27;20066;-64
2021/08/27 12:15:34;;;;;;;4.82;1.98;;;;;;;;;;5099342;27;20459;-64
2021/08/27 12:18:05;;;;;;;6.60;2.50;;;;;;;;;;5097671;27;20533;-64
2021/08/27 12:20:33;;;;;;;2.95;2.25;;;;;;;;;;5106618;27;20048;-64
2021/08/27 12:23:22;;;;;;;4.60;2.47;;;;;;;;;;5102723;27;20139;-64
2021/08/27 12:26:07;;;;;;;3.05;2.25;;;;;;;;;;5096303;28;20563;-64
2021/08/27 12:28:38;;;;;;;5.38;2.30;;;;;;;;;;5103072;27;20474;-64
2021/08/27 12:31:06;;;;;;;3.88;2.10;;;;;;;;;;5101269;27;20047;-64
2021/08/27 12:33:51;;;;;;;3.08;2.28;;;;;;;;;;5100139;27;20501;-63
2021/08/27 12:36:18;;;;;;;2.65;2.25;;;;;;;;;;5099455;28;20875;-64
2021/08/27 12:38:44;;;;;;;2.92;2.22;;;;;;;;;;5098462;27;20127;-64
2021/08/27 12:41:12;;;;;;;2.63;1.90;;;;;;;;;;5097989;27;20075;-64
2021/08/27 12:43:38;;;;;;;;;;;;;;;;;;5101376;27;20048;-64
2021/08/27 12:46:05;;;;;;;3.85;2.10;;;;;;;;;;5103187;27;20441;-64
2021/08/27 12:48:32;;;;;;;4.60;2.13;;;;;;;;;;5097393;27;20474;-63
2021/08/27 12:50:58;;;;;;;3.20;2.10;;;;;;;;;;5101782;27;20447;-63
2021/08/27 12:53:38;;;;;;;2.50;2.00;;;;;;;;;;5100420;28;20048;-63
2021/08/27 12:56:06;;;;;;;3.85;1.63;;;;;;;;;;5103930;28;20086;-63
2021/08/27 12:58:32;;;;;;;;;;;;;;;;;;5098550;27;20116;-63
2021/08/27 13:01:27;;;;;;;1.95;1.55;;;;;;;;;;5098837;28;20018;-63
2021/08/27 13:03:56;;;;;;;4.43;1.85;;;;;;;;;;5079607;27;20143;-63
2021/08/27 13:06:33;;;;;;;3.63;1.77;;;;;;;;;;5099793;27;20092;-63
2021/08/27 13:09:04;;;;;;;2.15;1.60;;;;;;;;;;5096972;28;20052;-63
2021/08/27 13:11:50;;;;;;;9.02;1.90;;;;;;;;;;5092482;27;20143;-63
2021/08/27 13:14:26;;;;;;;2.17;1.30;;;;;;;;;;5101694;28;20465;-63
2021/08/27 13:16:54;;;;;;;4.32;1.77;;;;;;;;;;5095625;28;20052;-63
2021/08/27 13:19:21;;;;;;;1.65;1.45;;;;;;;;;;5094911;28;20044;-63
2021/08/27 13:21:50;;;;;;;3.13;1.40;;;;;;;;;;5097093;27;20515;-63
2021/08/27 13:24:16;;;;;;;2.92;1.40;;;;;;;;;;5100314;27;20161;-63
2021/08/27 13:26:53;;;;;;;3.58;1.13;;;;;;;;;;5093337;28;20127;-63
2021/08/27 13:29:20;;;;;;;1.83;1.60;;;;;;;;;;5097756;27;20071;-63
2021/08/27 13:31:47;;;;;;;2.03;1.13;;;;;;;;;;5101100;27;20087;-63
2021/08/27 13:34:14;;;;;;;2.27;1.67;;;;;;;;;;5097530;27;20075;-64
2021/08/27 13:36:40;;;;;;;2.08;1.33;;;;;;;;;;5094014;27;20130;-64
2021/08/27 13:39:12;;;;;;;3.00;1.60;;;;;;;;;;5096505;28;20083;-63
2021/08/27 13:41:39;;;;;;;4.13;1.60;;;;;;;;;;5102270;27;20093;-63
2021/08/27 13:44:06;;;;;;;;;;;;;;;;;;5094374;27;20436;-63
2021/08/27 13:46:36;;;;;;;2.58;1.25;;;;;;;;;;5097976;27;19963;-63
2021/08/27 13:49:06;;;;;;;4.75;1.48;;;;;;;;;;5096626;28;20159;-63
2021/08/27 13:51:33;;;;;;;2.78;1.70;;;;;;;;;;5100514;27;20131;-63
2021/08/27 13:54:04;;;;;;;1.40;1.30;;;;;;;;;;5099018;27;20077;-64
2021/08/27 13:56:31;;;;;;;2.83;1.48;;;;;;;;;;5080410;28;20168;-63
2021/08/27 13:58:59;;;;;;;1.52;1.30;;;;;;;;;;5093547;27;20097;-63
2021/08/27 14:01:25;;;;;;;1.23;1.13;;;;;;;;;;5098979;27;20102;-63
2021/08/27 14:03:52;;;;;;;2.30;1.60;;;;;;;;;;5097737;27;20052;-63
2021/08/27 14:06:19;;;;;;;1.55;1.30;;;;;;;;;;5095942;28;20506;-63
2021/08/27 14:08:45;;;;;;;3.03;1.30;;;;;;;;;;5099932;27;20040;-63
2021/08/27 14:11:13;;;;;;;1.65;1.40;;;;;;;;;;5094508;28;20085;-63
2021/08/27 14:13:39;;;;;;;1.97;1.47;;;;;;;;;;5097478;27;20086;-63
2021/08/27 14:16:07;;;;;;;3.67;1.50;;;;;;;;;;5094495;28;20051;-63
2021/08/27 14:18:34;;;;;;;4.15;1.55;;;;;;;;;;5099150;28;20482;-63
2021/08/27 14:21:01;;;;;;;2.13;1.58;;;;;;;;;;5098741;27;20055;-63
2021/08/27 14:23:38;;;;;;;2.72;1.40;;;;;;;;;;5098678;27;20051;-63
2021/08/27 14:26:04;;;;;;;1.52;1.30;;;;;;;;;;5089513;28;20639;-64
2021/08/27 14:28:30;;;;;;;4.47;1.63;;;;;;;;;;5101805;28;20131;-63
2021/08/27 14:30:57;;;;;;;1.67;1.30;;;;;;;;;;5101654;27;20530;-63
2021/08/27 14:33:32;;;;;;;1.25;1.10;;;;;;;;;;5095246;28;20486;-63
2021/08/27 14:35:58;;;;;;;3.13;1.60;;;;;;;;;;5090291;28;20076;-63
2021/08/27 14:38:25;;;;;;;3.50;1.60;;;;;;;;;;5090283;28;20090;-63
2021/08/27 14:40:52;;;;;;;1.20;1.10;;;;;;;;;;5093306;27;20048;-64
2021/08/27 14:43:20;;;;;;;2.20;1.17;;;;;;;;;;5093055;28;20063;-64
2021/08/27 14:45:46;;;;;;;1.10;1.00;;;;;;;;;;5093958;28;20040;-64
2021/08/27 14:48:13;;;;;;;1.20;1.07;;;;;;;;;;5093281;28;20525;-64
2021/08/27 14:50:40;;;;;;;1.48;1.13;;;;;;;;;;5092747;28;20302;-64
2021/08/27 14:53:06;;;;;;;1.55;1.40;;;;;;;;;;5096812;28;20569;-64